RA44704 URMM-UDYZ
Flight info
| Callsign | RA44704 |
|---|---|
| Flight time | N/A |
| Altitude | 33000 |
| Route | MOZAT M54 GUSLI L125 OGEVI T918 TIBLO |
| Aircraft | B752/M-SDFGHIRWY/S |
Departure
| Time | 2026-04-16 20:31 |
|---|---|
| Airport | Mineralnye Vody Airport (URMM) |
Arrival
| Time | N/A |
|---|---|
| Airport | Zvartnots International Airport (UDYZ) |
| Time | Latitude | Longitude | Altitude | Speed | Heading |
|---|---|---|---|---|---|
| 2026-04-16 20:10 | 44.22108 | 43.08257 | 1055 ft | 0 kts | 212° |
| 2026-04-16 20:23 | 44.22120 | 43.08265 | 1055 ft | 2 kts | 207° |
| 2026-04-16 20:23 | 44.22133 | 43.08277 | 1055 ft | 2 kts | 212° |
| 2026-04-16 20:24 | 44.22147 | 43.08281 | 1055 ft | 2 kts | 170° |
| 2026-04-16 20:24 | 44.22161 | 43.08273 | 1055 ft | 2 kts | 139° |
| 2026-04-16 20:24 | 44.22169 | 43.08257 | 1055 ft | 0 kts | 117° |
| 2026-04-16 20:24 | 44.22171 | 43.08254 | 1055 ft | 0 kts | 118° |
| 2026-04-16 20:26 | 44.22163 | 43.08271 | 1055 ft | 9 kts | 122° |
| 2026-04-16 20:26 | 44.22115 | 43.08377 | 1055 ft | 15 kts | 122° |
| 2026-04-16 20:26 | 44.22061 | 43.08497 | 1055 ft | 13 kts | 122° |
| 2026-04-16 20:26 | 44.22015 | 43.08606 | 1055 ft | 13 kts | 110° |
| 2026-04-16 20:27 | 44.21978 | 43.08732 | 1055 ft | 14 kts | 122° |
| 2026-04-16 20:27 | 44.21920 | 43.08857 | 1055 ft | 15 kts | 121° |
| 2026-04-16 20:27 | 44.21862 | 43.08987 | 1055 ft | 16 kts | 122° |
| 2026-04-16 20:27 | 44.21796 | 43.09119 | 1055 ft | 16 kts | 122° |
| 2026-04-16 20:28 | 44.21732 | 43.09260 | 1055 ft | 17 kts | 124° |
| 2026-04-16 20:28 | 44.21654 | 43.09392 | 1055 ft | 17 kts | 123° |
| 2026-04-16 20:28 | 44.21586 | 43.09540 | 1055 ft | 18 kts | 122° |
| 2026-04-16 20:28 | 44.21520 | 43.09687 | 1055 ft | 14 kts | 121° |
| 2026-04-16 20:29 | 44.21517 | 43.09806 | 1055 ft | 12 kts | 77° |
| 2026-04-16 20:29 | 44.21537 | 43.09930 | 1055 ft | 13 kts | 77° |
| 2026-04-16 20:29 | 44.21558 | 43.10059 | 1055 ft | 14 kts | 78° |
| 2026-04-16 20:29 | 44.21579 | 43.10183 | 1055 ft | 10 kts | 68° |
| 2026-04-16 20:30 | 44.21630 | 43.10249 | 1055 ft | 10 kts | 31° |
| 2026-04-16 20:30 | 44.21696 | 43.10304 | 1055 ft | 11 kts | 32° |
| 2026-04-16 20:30 | 44.21756 | 43.10324 | 1055 ft | 8 kts | 333° |
| 2026-04-16 20:30 | 44.21793 | 43.10257 | 1055 ft | 11 kts | 301° |
| 2026-04-16 20:31 | 44.21948 | 43.09921 | 1055 ft | 89 kts | 302° |
| 2026-04-16 20:31 | 44.22452 | 43.08792 | 1207 ft | 174 kts | 302° |
| 2026-04-16 20:31 | 44.23169 | 43.07243 | 2179 ft | 206 kts | 303° |
| 2026-04-16 20:31 | 44.23928 | 43.05584 | 3301 ft | 212 kts | 302° |
| 2026-04-16 20:32 | 44.24741 | 43.03772 | 4073 ft | 230 kts | 302° |
| 2026-04-16 20:32 | 44.25605 | 43.01857 | 4915 ft | 246 kts | 302° |
| 2026-04-16 20:32 | 44.26363 | 42.99667 | 5719 ft | 263 kts | 282° |
| 2026-04-16 20:32 | 44.26283 | 42.97141 | 6801 ft | 268 kts | 251° |
| 2026-04-16 20:33 | 44.25308 | 42.94942 | 7809 ft | 277 kts | 224° |
| 2026-04-16 20:33 | 44.23648 | 42.93608 | 8812 ft | 285 kts | 196° |
| 2026-04-16 20:33 | 44.21682 | 42.93475 | 9764 ft | 293 kts | 169° |
| 2026-04-16 20:33 | 44.19805 | 42.94616 | 10674 ft | 302 kts | 143° |
| 2026-04-16 20:34 | 44.18306 | 42.96735 | 11232 ft | 322 kts | 130° |
| 2026-04-16 20:34 | 44.16744 | 42.99088 | 11759 ft | 342 kts | 135° |
| 2026-04-16 20:34 | 44.14961 | 43.01400 | 12431 ft | 356 kts | 139° |
| 2026-04-16 20:34 | 44.12941 | 43.03395 | 13357 ft | 360 kts | 153° |
| 2026-04-16 20:35 | 44.10601 | 43.04558 | 14221 ft | 365 kts | 167° |
| 2026-04-16 20:35 | 44.08098 | 43.05319 | 15074 ft | 370 kts | 168° |
| 2026-04-16 20:35 | 44.05602 | 43.06031 | 15915 ft | 375 kts | 169° |
| 2026-04-16 20:35 | 44.03020 | 43.06725 | 16789 ft | 379 kts | 169° |
| 2026-04-16 20:36 | 44.00425 | 43.07401 | 17621 ft | 384 kts | 169° |
| 2026-04-16 20:36 | 43.97778 | 43.08079 | 18416 ft | 389 kts | 170° |
| 2026-04-16 20:36 | 43.95110 | 43.08756 | 19207 ft | 393 kts | 170° |
| 2026-04-16 20:36 | 43.92405 | 43.09439 | 20035 ft | 397 kts | 170° |
| 2026-04-16 20:37 | 43.89706 | 43.10119 | 20788 ft | 401 kts | 170° |
| 2026-04-16 20:37 | 43.86919 | 43.10821 | 21577 ft | 405 kts | 170° |
| 2026-04-16 20:37 | 43.84136 | 43.11521 | 22266 ft | 410 kts | 170° |
| 2026-04-16 20:37 | 43.81353 | 43.12222 | 23029 ft | 413 kts | 169° |
| 2026-04-16 20:38 | 43.78514 | 43.12938 | 23720 ft | 417 kts | 170° |
| 2026-04-16 20:38 | 43.75658 | 43.13658 | 24406 ft | 421 kts | 170° |
| 2026-04-16 20:38 | 43.72752 | 43.14381 | 25064 ft | 425 kts | 171° |
| 2026-04-16 20:38 | 43.69808 | 43.14917 | 25720 ft | 429 kts | 173° |
| 2026-04-16 20:39 | 43.66869 | 43.15424 | 26333 ft | 433 kts | 173° |
| 2026-04-16 20:39 | 43.63866 | 43.15948 | 26941 ft | 437 kts | 173° |
| 2026-04-16 20:39 | 43.60835 | 43.16478 | 27470 ft | 442 kts | 173° |
| 2026-04-16 20:39 | 43.57765 | 43.17014 | 28036 ft | 446 kts | 173° |
| 2026-04-16 20:40 | 43.54680 | 43.17553 | 28621 ft | 449 kts | 173° |
| 2026-04-16 20:40 | 43.51566 | 43.18098 | 29082 ft | 454 kts | 174° |
| 2026-04-16 20:40 | 43.48433 | 43.18644 | 29643 ft | 457 kts | 174° |
| 2026-04-16 20:40 | 43.45255 | 43.19198 | 30118 ft | 461 kts | 174° |
| 2026-04-16 20:41 | 43.42059 | 43.19755 | 30618 ft | 465 kts | 174° |
| 2026-04-16 20:41 | 43.38874 | 43.20310 | 31028 ft | 469 kts | 174° |
| 2026-04-16 20:41 | 43.35650 | 43.20875 | 31633 ft | 467 kts | 174° |
| 2026-04-16 20:41 | 43.32436 | 43.21438 | 32240 ft | 465 kts | 174° |
| 2026-04-16 20:42 | 43.29230 | 43.21999 | 32769 ft | 464 kts | 174° |
| 2026-04-16 20:42 | 43.26017 | 43.22560 | 33317 ft | 463 kts | 174° |
| 2026-04-16 20:42 | 43.22821 | 43.23119 | 33787 ft | 463 kts | 174° |
| 2026-04-16 20:42 | 43.19637 | 43.23674 | 34270 ft | 462 kts | 174° |
| 2026-04-16 20:43 | 43.16455 | 43.24227 | 34721 ft | 461 kts | 174° |
| 2026-04-16 20:43 | 43.13283 | 43.24780 | 35111 ft | 460 kts | 174° |
| 2026-04-16 20:43 | 43.06945 | 43.25880 | 35183 ft | 462 kts | 174° |
| 2026-04-16 20:44 | 43.00645 | 43.26973 | 35178 ft | 455 kts | 174° |
| 2026-04-16 20:44 | 42.94326 | 43.28068 | 35187 ft | 459 kts | 174° |
| 2026-04-16 20:45 | 42.88172 | 43.30370 | 35209 ft | 464 kts | 162° |
| 2026-04-16 20:45 | 42.82074 | 43.33301 | 35238 ft | 463 kts | 162° |
| 2026-04-16 20:46 | 42.76030 | 43.36235 | 35258 ft | 463 kts | 162° |
| 2026-04-16 20:46 | 42.69961 | 43.39188 | 35265 ft | 465 kts | 162° |
| 2026-04-16 20:47 | 42.63891 | 43.42139 | 35272 ft | 462 kts | 162° |
| 2026-04-16 20:47 | 42.57825 | 43.45061 | 35268 ft | 463 kts | 164° |
| 2026-04-16 20:48 | 42.51696 | 43.47580 | 35268 ft | 463 kts | 165° |
| 2026-04-16 20:48 | 42.45519 | 43.50113 | 35266 ft | 462 kts | 165° |
| 2026-04-16 20:49 | 42.39436 | 43.52606 | 35273 ft | 462 kts | 165° |
| 2026-04-16 20:49 | 42.33308 | 43.55113 | 35258 ft | 463 kts | 165° |
| 2026-04-16 20:50 | 42.27147 | 43.57629 | 35255 ft | 462 kts | 165° |
| 2026-04-16 20:50 | 42.20986 | 43.60139 | 35251 ft | 463 kts | 165° |
| 2026-04-16 20:51 | 42.14855 | 43.62632 | 35227 ft | 463 kts | 165° |
| 2026-04-16 20:51 | 42.08667 | 43.64917 | 35213 ft | 458 kts | 174° |
| 2026-04-16 20:52 | 42.02306 | 43.65947 | 35205 ft | 458 kts | 177° |
| 2026-04-16 20:52 | 41.95999 | 43.66890 | 35207 ft | 456 kts | 178° |
| 2026-04-16 20:53 | 41.89691 | 43.67812 | 35218 ft | 458 kts | 178° |
| 2026-04-16 20:53 | 41.83363 | 43.68729 | 35219 ft | 458 kts | 178° |
| 2026-04-16 20:54 | 41.77014 | 43.69643 | 35213 ft | 458 kts | 178° |
| 2026-04-16 20:54 | 41.70671 | 43.70555 | 35218 ft | 459 kts | 178° |
| 2026-04-16 20:55 | 41.64352 | 43.71462 | 35205 ft | 458 kts | 178° |
| 2026-04-16 20:55 | 41.57990 | 43.72370 | 34714 ft | 461 kts | 178° |
| 2026-04-16 20:56 | 41.54823 | 43.72826 | 34128 ft | 452 kts | 178° |
| 2026-04-16 20:56 | 41.51742 | 43.73267 | 33552 ft | 442 kts | 178° |
| 2026-04-16 20:56 | 41.48725 | 43.73698 | 32997 ft | 437 kts | 178° |
| 2026-04-16 20:56 | 41.45671 | 43.74131 | 32445 ft | 441 kts | 179° |
| 2026-04-16 20:57 | 41.42609 | 43.74564 | 31893 ft | 449 kts | 179° |
| 2026-04-16 20:57 | 41.39510 | 43.75003 | 31333 ft | 453 kts | 178° |
| 2026-04-16 20:57 | 41.36386 | 43.75448 | 30766 ft | 452 kts | 178° |
| 2026-04-16 20:57 | 41.33284 | 43.75888 | 30164 ft | 449 kts | 178° |
| 2026-04-16 20:58 | 41.30191 | 43.76330 | 29613 ft | 441 kts | 178° |
| 2026-04-16 20:58 | 41.27187 | 43.76756 | 29058 ft | 435 kts | 178° |
| 2026-04-16 20:58 | 41.24167 | 43.77183 | 28500 ft | 431 kts | 178° |
| 2026-04-16 20:58 | 41.21238 | 43.77597 | 27995 ft | 428 kts | 178° |
| 2026-04-16 20:59 | 41.18280 | 43.78014 | 27481 ft | 427 kts | 178° |
| 2026-04-16 20:59 | 41.15339 | 43.78429 | 26972 ft | 425 kts | 178° |
| 2026-04-16 20:59 | 41.12415 | 43.78849 | 26476 ft | 421 kts | 178° |
| 2026-04-16 20:59 | 41.09510 | 43.79286 | 25904 ft | 419 kts | 177° |